createdAt,value
2018-08-03T00:00:10.669Z,67.74
2018-08-03T00:02:39.480Z,67.88
2018-08-03T00:05:08.392Z,68.03
2018-08-03T00:07:37.252Z,68.51
2018-08-03T00:10:06.975Z,68.69
2018-08-03T00:12:35.701Z,69.00
2018-08-03T00:15:05.033Z,68.83
2018-08-03T00:17:33.645Z,69.13
2018-08-03T00:20:02.491Z,69.29
2018-08-03T00:22:31.189Z,69.62
2018-08-03T00:24:59.897Z,69.31
2018-08-03T00:27:28.642Z,69.93
2018-08-03T00:29:57.284Z,70.04
2018-08-03T00:32:26.006Z,70.52
2018-08-03T00:34:54.619Z,70.25
2018-08-03T00:37:23.281Z,71.03
2018-08-03T00:39:52.072Z,70.15
2018-08-03T00:42:20.785Z,70.76
2018-08-03T00:44:49.413Z,70.27
2018-08-03T00:47:18.059Z,70.50
2018-08-03T00:49:46.755Z,71.01
2018-08-03T00:52:15.344Z,70.80
2018-08-03T00:54:43.987Z,71.80
2018-08-03T00:57:12.616Z,71.05
2018-08-03T00:59:41.304Z,70.78
2018-08-03T01:02:09.951Z,71.10
2018-08-03T01:04:38.637Z,70.87
2018-08-03T01:07:07.324Z,70.80
2018-08-03T01:09:36.117Z,70.96
2018-08-03T01:12:05.125Z,70.62
2018-08-03T01:14:33.766Z,70.70
2018-08-03T01:17:02.475Z,71.12
2018-08-03T01:19:31.169Z,71.70
2018-08-03T01:21:59.781Z,70.62
2018-08-03T01:24:28.559Z,70.92
2018-08-03T01:26:57.348Z,70.54
2018-08-03T01:29:26.114Z,71.14
2018-08-03T01:31:54.763Z,70.80
2018-08-03T01:34:23.379Z,70.82
2018-08-03T01:36:51.997Z,71.12
2018-08-03T01:39:20.991Z,70.85
2018-08-03T01:41:49.670Z,71.48
2018-08-03T01:44:18.884Z,71.03
2018-08-03T01:46:47.775Z,71.36
2018-08-03T01:49:16.429Z,71.55
2018-08-03T01:51:45.250Z,72.51
2018-08-03T01:54:13.961Z,72.03
2018-08-03T01:56:42.629Z,72.12
2018-08-03T01:59:11.635Z,73.00
2018-08-03T02:01:40.419Z,72.15
2018-08-03T02:04:09.234Z,72.33
2018-08-03T02:06:37.855Z,73.00
2018-08-03T02:09:08.429Z,72.01
2018-08-03T02:11:37.267Z,72.26
2018-08-03T02:14:06.150Z,72.09
2018-08-03T02:16:35.203Z,71.96
2018-08-03T02:19:03.934Z,72.25
2018-08-03T02:21:32.532Z,72.17
2018-08-03T02:24:01.277Z,72.85
2018-08-03T02:26:30.061Z,73.17
2018-08-03T02:28:58.979Z,72.62
2018-08-03T02:31:27.701Z,73.06
2018-08-03T02:33:56.419Z,73.38
2018-08-03T02:36:25.061Z,73.62
2018-08-03T02:38:53.712Z,73.69
2018-08-03T02:41:22.411Z,73.08
2018-08-03T02:43:51.048Z,73.38
2018-08-03T02:46:19.697Z,73.41
2018-08-03T02:48:48.660Z,73.47
2018-08-03T02:51:17.257Z,73.11
2018-08-03T02:53:45.971Z,74.16
2018-08-03T02:56:14.683Z,73.18
2018-08-03T02:58:43.387Z,73.16
2018-08-03T03:01:12.051Z,72.90
2018-08-03T03:03:40.693Z,73.44
2018-08-03T03:06:09.345Z,73.24
2018-08-03T03:08:38.000Z,73.68
2018-08-03T03:11:06.723Z,73.88
2018-08-03T03:13:35.443Z,74.33
2018-08-03T03:16:04.372Z,74.84
2018-08-03T03:18:33.088Z,74.78
2018-08-03T03:21:01.872Z,74.43
2018-08-03T03:23:30.563Z,76.13
2018-08-03T03:25:59.338Z,76.00
2018-08-03T03:28:28.066Z,75.28
2018-08-03T03:30:56.941Z,75.14
2018-08-03T03:33:25.666Z,75.39
2018-08-03T03:35:54.458Z,75.19
2018-08-03T03:38:23.188Z,75.06
2018-08-03T03:40:51.920Z,75.09
2018-08-03T03:43:20.666Z,74.91
2018-08-03T03:45:49.306Z,74.91
2018-08-03T03:48:17.930Z,74.08
2018-08-03T03:50:46.646Z,74.50
2018-08-03T03:53:15.277Z,73.95
2018-08-03T03:55:43.984Z,73.73
2018-08-03T03:58:12.598Z,73.95
2018-08-03T04:00:41.407Z,73.74
2018-08-03T04:03:10.290Z,73.38
2018-08-03T04:05:39.113Z,73.46
2018-08-03T04:08:07.837Z,73.67
2018-08-03T04:10:36.469Z,73.31
2018-08-03T04:13:05.114Z,73.47
2018-08-03T04:15:33.855Z,72.58
2018-08-03T04:18:02.495Z,72.71
2018-08-03T04:20:31.098Z,72.21
2018-08-03T04:23:00.046Z,71.99
2018-08-03T04:25:28.756Z,71.76
2018-08-03T04:27:57.420Z,71.84
2018-08-03T04:30:26.123Z,71.49
2018-08-03T04:32:54.913Z,70.81
2018-08-03T04:35:23.641Z,71.30
2018-08-03T04:37:52.980Z,71.21
2018-08-03T04:40:21.672Z,70.63
2018-08-03T04:42:50.482Z,70.51
2018-08-03T04:45:19.255Z,70.81
2018-08-03T04:47:47.990Z,70.77
2018-08-03T04:50:16.714Z,70.40
2018-08-03T04:52:45.416Z,70.66
2018-08-03T04:55:14.211Z,70.36
2018-08-03T04:57:42.944Z,70.36
2018-08-03T05:00:11.634Z,70.72
2018-08-03T05:02:40.359Z,70.72
2018-08-03T05:05:09.506Z,69.92
2018-08-03T05:07:38.479Z,70.29
2018-08-03T05:10:07.364Z,70.41
2018-08-03T05:12:36.003Z,70.17
2018-08-03T05:15:05.149Z,70.14
2018-08-03T05:17:33.832Z,69.63
2018-08-03T05:20:03.226Z,69.62
2018-08-03T05:22:31.887Z,69.49
2018-08-03T05:25:00.625Z,69.82
2018-08-03T05:27:29.304Z,69.65
2018-08-03T05:29:57.989Z,69.94
2018-08-03T05:32:26.722Z,70.98
2018-08-03T05:34:55.486Z,69.94
2018-08-03T05:37:24.272Z,69.86
2018-08-03T05:39:53.119Z,70.16
2018-08-03T05:42:21.755Z,70.20
2018-08-03T05:44:50.818Z,70.53
2018-08-03T05:47:19.512Z,68.99
2018-08-03T05:49:48.318Z,68.55
2018-08-03T05:52:16.997Z,68.65
2018-08-03T05:54:45.739Z,67.16
2018-08-03T05:57:14.515Z,67.64
2018-08-03T05:59:43.146Z,66.28
2018-08-03T06:02:11.810Z,66.24
2018-08-03T06:04:40.528Z,64.93
2018-08-03T06:07:09.195Z,64.93
2018-08-03T06:09:37.990Z,64.96
2018-08-03T06:12:06.765Z,65.01
2018-08-03T06:14:35.489Z,63.60
2018-08-03T06:17:04.202Z,62.96
2018-08-03T06:19:32.835Z,62.31
2018-08-03T06:22:01.699Z,62.68
2018-08-03T06:24:30.865Z,61.60
2018-08-03T06:26:59.504Z,61.48
2018-08-03T06:29:28.272Z,62.42
2018-08-03T06:31:56.989Z,63.22
2018-08-03T06:34:32.453Z,62.78
2018-08-03T06:37:01.561Z,62.89
2018-08-03T06:39:30.335Z,63.41
2018-08-03T06:41:58.987Z,63.76
2018-08-03T06:44:27.684Z,63.64
2018-08-03T06:46:56.404Z,62.82
2018-08-03T06:49:25.035Z,63.54
2018-08-03T06:51:53.765Z,63.27
2018-08-03T06:54:22.479Z,63.55
2018-08-03T06:56:51.225Z,63.68
2018-08-03T06:59:19.990Z,63.21
2018-08-03T07:01:48.713Z,63.53
2018-08-03T07:04:17.540Z,62.31
2018-08-03T07:06:46.303Z,63.07
2018-08-03T07:09:15.147Z,62.86
2018-08-03T07:11:43.786Z,62.27
2018-08-03T07:14:12.471Z,62.46
2018-08-03T07:16:41.196Z,62.23
2018-08-03T07:19:09.837Z,61.70
2018-08-03T07:21:38.636Z,62.32
2018-08-03T07:24:07.422Z,62.09
2018-08-03T07:26:36.181Z,61.86
2018-08-03T07:29:04.911Z,60.41
2018-08-03T07:31:33.654Z,60.61
2018-08-03T07:34:02.349Z,61.04
2018-08-03T07:36:31.073Z,60.94
2018-08-03T07:38:59.822Z,60.69
2018-08-03T07:41:28.492Z,60.21
2018-08-03T07:43:57.195Z,59.71
2018-08-03T07:46:25.939Z,59.22
2018-08-03T07:48:54.560Z,59.80
2018-08-03T07:51:23.364Z,58.37
2018-08-03T07:53:52.019Z,58.27
2018-08-03T07:56:20.740Z,57.70
2018-08-03T07:58:49.455Z,57.81
2018-08-03T08:01:18.143Z,57.66
2018-08-03T08:03:46.812Z,56.91
2018-08-03T08:06:15.462Z,57.83
2018-08-03T08:08:44.223Z,57.48
2018-08-03T08:11:13.310Z,57.76
2018-08-03T08:13:42.021Z,57.44
2018-08-03T08:16:10.749Z,56.89
2018-08-03T08:18:39.379Z,57.32
2018-08-03T08:21:08.119Z,57.83
2018-08-03T08:23:36.912Z,56.67
2018-08-03T08:26:05.655Z,56.10
2018-08-03T08:28:34.482Z,55.53
2018-08-03T08:31:03.184Z,54.56
2018-08-03T08:33:31.997Z,54.10
2018-08-03T08:36:00.655Z,54.30
2018-08-03T08:38:29.373Z,54.92
2018-08-03T08:40:58.071Z,53.80
2018-08-03T08:43:26.746Z,53.31
2018-08-03T08:45:55.407Z,51.69
2018-08-03T08:48:23.997Z,50.48
2018-08-03T08:50:52.903Z,49.64
2018-08-03T08:53:21.751Z,50.58
2018-08-03T08:55:50.365Z,49.06
2018-08-03T08:58:19.249Z,49.55
2018-08-03T09:00:48.000Z,47.88
2018-08-03T09:03:17.085Z,47.45
2018-08-03T09:05:45.839Z,45.82
2018-08-03T09:08:14.568Z,46.95
2018-08-03T09:10:43.324Z,45.38
2018-08-03T09:13:12.040Z,46.52
2018-08-03T09:15:40.795Z,46.13
2018-08-03T09:18:09.613Z,45.45
2018-08-03T09:20:38.476Z,44.70
2018-08-03T09:23:07.530Z,45.30
2018-08-03T09:25:36.261Z,43.93
2018-08-03T09:28:04.854Z,43.60
2018-08-03T09:30:33.529Z,42.76
2018-08-03T09:33:02.201Z,41.38
2018-08-03T09:35:30.835Z,38.69
2018-08-03T09:37:59.488Z,38.90
2018-08-03T09:40:28.267Z,39.46
2018-08-03T09:42:57.231Z,38.47
2018-08-03T09:45:25.896Z,39.92
2018-08-03T09:47:54.638Z,40.05
2018-08-03T09:50:23.364Z,40.39
2018-08-03T09:52:52.384Z,38.78
2018-08-03T09:55:21.551Z,39.17
2018-08-03T09:57:50.570Z,38.36
2018-08-03T10:00:23.627Z,39.09
2018-08-03T10:02:52.417Z,38.55
2018-08-03T10:05:21.073Z,39.59
2018-08-03T10:07:49.682Z,38.82
2018-08-03T10:10:18.539Z,39.13
2018-08-03T10:12:47.336Z,40.29
2018-08-03T10:15:15.954Z,39.84
2018-08-03T10:17:44.620Z,38.89
2018-08-03T10:20:13.317Z,36.89
2018-08-03T10:22:41.974Z,37.39
2018-08-03T10:25:10.781Z,37.57
2018-08-03T10:27:39.502Z,35.75
2018-08-03T10:30:08.158Z,36.18
2018-08-03T10:32:36.948Z,36.68
2018-08-03T10:35:06.720Z,35.01
2018-08-03T10:37:35.409Z,36.01
2018-08-03T10:40:04.151Z,34.62
2018-08-03T10:42:32.838Z,35.42
2018-08-03T10:45:01.470Z,35.41
2018-08-03T10:47:30.155Z,34.08
2018-08-03T10:49:58.948Z,35.15
2018-08-03T10:52:27.676Z,34.35
2018-08-03T10:54:56.403Z,36.57
2018-08-03T10:57:25.022Z,35.45
2018-08-03T10:59:53.709Z,33.78
2018-08-03T11:02:22.476Z,33.67
2018-08-03T11:04:51.269Z,33.43
2018-08-03T11:07:19.992Z,34.50
2018-08-03T11:09:48.673Z,34.14
2018-08-03T11:12:17.387Z,35.86
2018-08-03T11:14:46.028Z,35.19
2018-08-03T11:17:14.661Z,33.97
2018-08-03T11:19:43.305Z,34.03
2018-08-03T11:22:11.984Z,33.56
2018-08-03T11:24:40.601Z,32.79
2018-08-03T11:27:10.194Z,31.77
2018-08-03T11:29:38.977Z,32.73
2018-08-03T11:32:07.674Z,32.04
2018-08-03T11:34:36.366Z,31.84
2018-08-03T11:37:05.196Z,32.60
2018-08-03T11:39:33.924Z,30.98
2018-08-03T11:42:02.669Z,30.62
2018-08-03T11:44:31.411Z,29.29
2018-08-03T11:47:00.149Z,29.59
2018-08-03T11:49:28.961Z,28.01
2018-08-03T11:51:57.601Z,30.68
2018-08-03T11:54:26.362Z,30.89
2018-08-03T11:56:55.497Z,32.51
2018-08-03T11:59:24.261Z,32.73
2018-08-03T12:01:53.008Z,32.99
2018-08-03T12:04:22.030Z,31.75
2018-08-03T12:06:50.901Z,32.46
2018-08-03T12:09:19.626Z,31.00
2018-08-03T12:11:48.383Z,31.33
2018-08-03T12:14:17.084Z,30.04
2018-08-03T12:16:45.850Z,29.66
2018-08-03T12:19:14.492Z,29.61
2018-08-03T12:21:43.136Z,30.09
2018-08-03T12:24:11.903Z,30.26
2018-08-03T12:26:40.608Z,31.09
2018-08-03T12:29:09.571Z,30.26
2018-08-03T12:31:38.350Z,30.22
2018-08-03T12:34:07.137Z,31.82
2018-08-03T12:36:35.961Z,31.37
2018-08-03T12:39:06.593Z,30.95
2018-08-03T12:41:35.248Z,31.94
2018-08-03T12:44:04.389Z,33.11
2018-08-03T12:46:33.141Z,32.52
2018-08-03T12:49:01.988Z,32.42
2018-08-03T12:51:30.837Z,32.89
2018-08-03T12:53:59.470Z,32.76
2018-08-03T12:56:28.315Z,33.91
2018-08-03T12:58:57.188Z,33.82
2018-08-03T13:01:25.869Z,32.25
2018-08-03T13:03:54.532Z,33.12
2018-08-03T13:06:23.434Z,32.24
2018-08-03T13:08:52.224Z,32.59
2018-08-03T13:11:20.895Z,32.22
2018-08-03T13:13:49.774Z,32.13
2018-08-03T13:16:18.554Z,32.95
2018-08-03T13:18:47.220Z,33.29
2018-08-03T13:21:26.972Z,33.45
2018-08-03T13:23:57.706Z,32.39
2018-08-03T13:26:26.944Z,32.54
2018-08-03T13:28:56.120Z,32.54
2018-08-03T13:31:25.940Z,32.94
2018-08-03T13:33:55.007Z,33.17
2018-08-03T13:36:24.913Z,34.08
2018-08-03T13:38:53.762Z,33.94
2018-08-03T13:41:22.448Z,32.38
2018-08-03T13:43:51.242Z,32.65
2018-08-03T13:46:19.963Z,31.61
2018-08-03T13:48:49.170Z,31.01
2018-08-03T13:51:18.711Z,29.56
2018-08-03T13:53:47.880Z,29.03
2018-08-03T13:56:17.357Z,28.74
2018-08-03T13:58:46.685Z,30.20
2018-08-03T14:01:26.546Z,30.87
2018-08-03T14:03:55.298Z,30.77
2018-08-03T14:06:24.179Z,29.97
2018-08-03T14:08:52.840Z,29.89
2018-08-03T14:11:21.591Z,29.73
2018-08-03T14:13:50.222Z,28.66
2018-08-03T14:16:18.986Z,27.74
2018-08-03T14:18:48.146Z,27.62
2018-08-03T14:21:17.058Z,26.05
2018-08-03T14:23:45.868Z,25.59
2018-08-03T14:26:14.675Z,24.29
2018-08-03T14:28:43.380Z,23.10
2018-08-03T14:31:12.115Z,22.33
2018-08-03T14:33:40.802Z,22.26
2018-08-03T14:36:09.526Z,21.00
2018-08-03T14:38:38.208Z,22.47
2018-08-03T14:41:07.228Z,24.27
2018-08-03T14:43:36.035Z,23.35
2018-08-03T14:46:05.020Z,24.99
2018-08-03T14:48:33.772Z,29.21
2018-08-03T14:51:02.508Z,31.18
2018-08-03T14:53:31.327Z,33.02
2018-08-03T14:56:00.121Z,33.11
2018-08-03T14:58:28.804Z,32.11
2018-08-03T15:00:57.676Z,30.33
2018-08-03T15:03:26.956Z,27.23
2018-08-03T15:05:55.800Z,25.39
2018-08-03T15:08:24.541Z,24.64
2018-08-03T15:10:53.447Z,23.91
2018-08-03T15:13:22.202Z,28.50
2018-08-03T15:15:50.898Z,34.68
2018-08-03T15:18:19.631Z,39.07
2018-08-03T15:20:48.281Z,42.15
2018-08-03T15:23:16.883Z,46.25
2018-08-03T15:25:45.661Z,46.78
2018-08-03T15:28:14.368Z,48.02
2018-08-03T15:30:43.250Z,49.18
2018-08-03T15:33:11.852Z,48.76
2018-08-03T15:35:40.586Z,49.92
2018-08-03T15:38:09.238Z,51.28
2018-08-03T15:40:37.887Z,52.42
2018-08-03T15:43:06.899Z,53.17
2018-08-03T15:45:35.811Z,53.74
2018-08-03T15:48:04.524Z,54.51
2018-08-03T15:50:33.205Z,55.19
2018-08-03T15:53:01.890Z,57.08
2018-08-03T15:55:30.521Z,56.57
2018-08-03T15:57:59.652Z,58.83
2018-08-03T16:00:28.516Z,57.74
2018-08-03T16:02:57.381Z,58.08
2018-08-03T16:05:26.135Z,57.21
2018-08-03T16:07:55.031Z,57.01
2018-08-03T16:10:23.851Z,57.30
2018-08-03T16:12:52.544Z,56.33
2018-08-03T16:15:21.364Z,57.20
2018-08-03T16:17:50.059Z,56.73
2018-08-03T16:20:18.814Z,57.43
2018-08-03T16:22:47.521Z,57.70
2018-08-03T16:25:16.242Z,57.10
2018-08-03T16:27:45.028Z,56.59
2018-08-03T16:30:13.648Z,56.73
2018-08-03T16:32:42.373Z,56.75
2018-08-03T16:35:11.485Z,55.53
2018-08-03T16:37:40.165Z,54.96
2018-08-03T16:40:09.560Z,54.81
2018-08-03T16:42:38.256Z,54.77
2018-08-03T16:45:07.880Z,55.49
2018-08-03T16:47:36.740Z,55.20
2018-08-03T16:50:05.825Z,55.40
2018-08-03T16:52:34.594Z,55.59
2018-08-03T16:55:03.491Z,55.23
2018-08-03T16:57:32.147Z,56.21
2018-08-03T17:00:00.777Z,55.75
2018-08-03T17:02:29.443Z,55.69
2018-08-03T17:04:58.291Z,55.80
2018-08-03T17:07:27.029Z,55.78
2018-08-03T17:09:55.725Z,56.09
2018-08-03T17:12:24.663Z,56.54
2018-08-03T17:14:53.363Z,56.43
2018-08-03T17:17:22.107Z,57.03
2018-08-03T17:19:50.793Z,57.98
2018-08-03T17:22:19.558Z,57.85
2018-08-03T17:24:48.266Z,57.72
2018-08-03T17:27:16.921Z,58.88
2018-08-03T17:29:45.602Z,58.94
2018-08-03T17:32:14.392Z,59.33
2018-08-03T17:34:43.082Z,58.85
2018-08-03T17:37:11.918Z,59.23
2018-08-03T17:39:41.569Z,59.98
2018-08-03T17:42:10.147Z,60.11
2018-08-03T17:44:38.813Z,60.23
2018-08-03T17:47:07.433Z,60.12
2018-08-03T17:49:36.185Z,60.28
2018-08-03T17:52:04.984Z,60.28
2018-08-03T17:54:33.698Z,60.78
2018-08-03T17:57:02.422Z,60.42
2018-08-03T17:59:31.155Z,60.73
2018-08-03T18:01:59.879Z,60.84
2018-08-03T18:04:28.586Z,61.05
2018-08-03T18:06:57.603Z,62.11
2018-08-03T18:09:26.471Z,57.89
2018-08-03T18:11:55.143Z,54.12
2018-08-03T18:14:24.048Z,52.44
2018-08-03T18:16:52.992Z,47.34
2018-08-03T18:19:21.709Z,48.29
2018-08-03T18:21:50.464Z,48.21
2018-08-03T18:24:19.163Z,47.86
2018-08-03T18:26:47.846Z,45.45
2018-08-03T18:29:16.656Z,46.74
2018-08-03T18:31:45.304Z,44.69
2018-08-03T18:34:14.001Z,45.46
2018-08-03T18:36:42.715Z,45.25
2018-08-03T18:39:12.424Z,45.07
2018-08-03T18:41:41.230Z,44.14
2018-08-03T18:44:10.050Z,44.24
2018-08-03T18:46:38.860Z,43.48
2018-08-03T18:49:07.487Z,43.92
2018-08-03T18:51:36.322Z,43.86
2018-08-03T18:54:05.131Z,43.27
2018-08-03T18:56:33.820Z,44.53
2018-08-03T18:59:02.558Z,44.00
2018-08-03T19:01:31.370Z,44.68
2018-08-03T19:04:00.318Z,44.30
2018-08-03T19:06:29.309Z,44.06
2018-08-03T19:08:58.197Z,44.07
2018-08-03T19:11:26.968Z,45.04
2018-08-03T19:13:55.619Z,44.14
2018-08-03T19:16:24.339Z,44.93
2018-08-03T19:18:53.045Z,44.95
2018-08-03T19:21:21.836Z,44.97
2018-08-03T19:23:50.586Z,45.05
2018-08-03T19:26:19.233Z,45.85
2018-08-03T19:28:48.022Z,46.25
2018-08-03T19:31:16.754Z,45.70
2018-08-03T19:33:45.648Z,45.21
2018-08-03T19:36:14.351Z,45.20
2018-08-03T19:38:43.234Z,44.92
2018-08-03T19:41:12.079Z,44.71
2018-08-03T19:43:40.762Z,44.91
2018-08-03T19:46:09.434Z,45.13
2018-08-03T19:48:38.069Z,45.20
2018-08-03T19:51:06.966Z,45.27
2018-08-03T19:53:35.648Z,45.43
2018-08-03T19:56:04.324Z,45.05
2018-08-03T19:58:32.997Z,45.22
2018-08-03T20:01:01.588Z,45.48
2018-08-03T20:03:30.433Z,45.89
2018-08-03T20:05:59.357Z,45.84
2018-08-03T20:08:28.041Z,46.49
2018-08-03T20:10:56.722Z,46.73
2018-08-03T20:13:25.548Z,46.46
2018-08-03T20:15:54.191Z,46.44
2018-08-03T20:18:22.893Z,46.46
2018-08-03T20:20:51.652Z,47.23
2018-08-03T20:23:20.404Z,47.24
2018-08-03T20:25:49.266Z,47.81
2018-08-03T20:28:17.966Z,47.58
2018-08-03T20:30:46.897Z,47.71
2018-08-03T20:33:15.680Z,48.22
2018-08-03T20:35:44.368Z,48.66
2018-08-03T20:38:12.940Z,48.11
2018-08-03T20:41:44.435Z,49.22
2018-08-03T20:44:13.187Z,50.28
2018-08-03T20:46:41.863Z,49.99
2018-08-03T20:49:10.499Z,50.39
2018-08-03T20:51:39.213Z,50.58
2018-08-03T20:54:07.899Z,51.37
2018-08-03T20:56:36.646Z,50.60
2018-08-03T20:59:05.556Z,51.19
2018-08-03T21:01:34.224Z,51.03
2018-08-03T21:04:02.982Z,51.03
2018-08-03T21:06:31.607Z,51.57
2018-08-03T21:09:00.540Z,52.14
2018-08-03T21:11:29.244Z,52.86
2018-08-03T21:13:58.128Z,53.47
2018-08-03T21:16:26.810Z,52.62
2018-08-03T21:18:55.799Z,52.96
2018-08-03T21:21:24.567Z,53.13
2018-08-03T21:23:54.203Z,53.42
2018-08-03T21:26:23.026Z,53.63
2018-08-03T21:28:51.906Z,53.95
2018-08-03T21:31:20.677Z,54.39
2018-08-03T21:33:49.421Z,54.61
2018-08-03T21:36:18.288Z,54.69
2018-08-03T21:38:47.317Z,55.41
2018-08-03T21:41:16.041Z,55.50
2018-08-03T21:43:45.079Z,55.75
2018-08-03T21:46:13.865Z,56.19
2018-08-03T21:48:42.654Z,56.35
2018-08-03T21:51:11.385Z,56.97
2018-08-03T21:53:40.093Z,56.46
2018-08-03T21:56:08.820Z,56.77
2018-08-03T21:58:37.596Z,56.70
2018-08-03T22:01:09.664Z,57.42
2018-08-03T22:03:38.428Z,56.95
2018-08-03T22:06:07.108Z,56.94
2018-08-03T22:08:35.830Z,57.00
2018-08-03T22:11:04.733Z,57.53
2018-08-03T22:13:33.490Z,57.93
2018-08-03T22:16:02.333Z,58.09
2018-08-03T22:18:30.972Z,58.40
2018-08-03T22:20:59.870Z,58.47
2018-08-03T22:23:28.589Z,58.68
2018-08-03T22:25:57.506Z,58.35
2018-08-03T22:28:26.115Z,58.82
2018-08-03T22:30:55.204Z,58.96
2018-08-03T22:33:23.943Z,59.29
2018-08-03T22:35:52.606Z,58.62
2018-08-03T22:38:21.635Z,59.19
2018-08-03T22:40:50.390Z,59.19
2018-08-03T22:43:19.110Z,59.53
2018-08-03T22:45:47.845Z,59.29
2018-08-03T22:48:16.514Z,59.20
2018-08-03T22:50:45.177Z,59.69
2018-08-03T22:53:13.989Z,59.79
2018-08-03T22:55:42.782Z,59.87
2018-08-03T22:58:11.544Z,59.67
2018-08-03T23:00:40.153Z,59.77
2018-08-03T23:03:08.879Z,60.39
2018-08-03T23:05:37.735Z,60.13
2018-08-03T23:08:06.651Z,60.23
2018-08-03T23:10:35.446Z,61.02
2018-08-03T23:13:04.212Z,60.18
2018-08-03T23:15:33.005Z,60.87
2018-08-03T23:18:01.644Z,61.04
2018-08-03T23:20:30.453Z,60.94
2018-08-03T23:22:59.157Z,61.07
2018-08-03T23:25:27.780Z,60.81
2018-08-03T23:27:56.533Z,61.18
2018-08-03T23:30:25.183Z,61.70
2018-08-03T23:32:53.973Z,61.30
2018-08-03T23:35:22.577Z,61.24
2018-08-03T23:37:51.449Z,61.43
2018-08-03T23:40:20.136Z,61.44
2018-08-03T23:42:48.809Z,61.68
2018-08-03T23:45:17.656Z,62.02
2018-08-03T23:47:46.446Z,62.30
2018-08-03T23:50:17.934Z,62.80
2018-08-03T23:52:48.183Z,62.07
2018-08-03T23:55:17.123Z,61.99
2018-08-03T23:57:46.271Z,62.30
